Time;durP1;ratioP1;P1;durP2;ratioP2;P2;SDS_P1;SDS_P2;PMS_P1;PMS_P2;Temp;Humidity;BMP_temperature;BMP_pressure;BME280_temperature;BME280_humidity;BME280_pressure;Samples;Min_cycle;Max_cycle;Signal;HPM_P1;HPM_P2
2023/01/12 00:01:22;;;;;;;11.95;2.67;;;;;;;;;;5096008;28;20020;-29
2023/01/12 00:03:49;;;;;;;10.43;3.55;;;;;;;;;;5098944;28;20051;-30
2023/01/12 00:06:15;;;;;;;11.65;2.70;;;;;;;;;;5098872;28;20381;-29
2023/01/12 00:08:41;;;;;;;9.48;2.75;;;;;;;;;;5099102;28;20028;-29
2023/01/12 00:11:07;;;;;;;12.35;2.15;;;;;;;;;;5080896;28;20475;-30
2023/01/12 00:13:34;;;;;;;10.75;2.85;;;;;;;;;;5098628;28;20028;-30
2023/01/12 00:18:45;;;;;;;11.70;3.28;;;;;;;;;;5098965;28;20039;-30
2023/01/12 00:21:12;;;;;;;5.78;2.50;;;;;;;;;;5098533;28;20054;-29
2023/01/12 00:23:38;;;;;;;6.78;3.15;;;;;;;;;;5098448;28;20417;-29
2023/01/12 00:26:07;;;;;;;8.88;2.65;;;;;;;;;;5098722;28;20348;-29
2023/01/12 00:28:37;;;;;;;12.57;4.10;;;;;;;;;;5098716;28;20020;-30
2023/01/12 00:31:06;;;;;;;8.15;2.25;;;;;;;;;;5098676;28;20422;-29
2023/01/12 00:33:34;;;;;;;10.25;2.70;;;;;;;;;;5098546;28;20020;-30
2023/01/12 00:36:07;;;;;;;8.05;2.30;;;;;;;;;;5098300;28;20336;-30
2023/01/12 00:38:37;;;;;;;15.35;2.40;;;;;;;;;;5098273;28;20020;-30
2023/01/12 00:41:07;;;;;;;8.60;2.45;;;;;;;;;;5098152;28;20515;-30
2023/01/12 00:46:18;;;;;;;7.75;2.63;;;;;;;;;;5098155;28;20378;-30
2023/01/12 00:48:44;;;;;;;7.97;2.78;;;;;;;;;;5080179;28;20097;-29
2023/01/12 00:51:10;;;;;;;9.70;3.00;;;;;;;;;;5080161;28;20028;-30
2023/01/12 00:53:36;;;;;;;9.88;3.22;;;;;;;;;;5097876;28;20023;-29
2023/01/12 00:56:03;;;;;;;7.22;2.60;;;;;;;;;;5097917;28;20085;-30
2023/01/12 00:58:30;;;;;;;6.93;2.55;;;;;;;;;;5080249;28;20435;-30
2023/01/12 01:01:04;;;;;;;7.70;3.15;;;;;;;;;;5097999;28;20036;-29
2023/01/12 01:03:30;;;;;;;7.95;2.40;;;;;;;;;;5097706;28;20032;-29
2023/01/12 01:06:07;;;;;;;8.00;2.40;;;;;;;;;;5097753;28;20480;-30
2023/01/12 01:08:35;;;;;;;7.68;2.92;;;;;;;;;;5097922;28;20194;-29
2023/01/12 01:11:06;;;;;;;8.05;2.53;;;;;;;;;;5097911;28;20048;-29
2023/01/12 01:13:35;;;;;;;9.68;2.80;;;;;;;;;;5097527;28;20042;-29
2023/01/12 01:16:02;;;;;;;5.25;2.45;;;;;;;;;;5097780;28;20039;-30
2023/01/12 01:18:28;;;;;;;7.70;2.30;;;;;;;;;;5097769;28;20073;-29
2023/01/12 01:20:54;;;;;;;7.28;1.88;;;;;;;;;;5097405;28;20047;-29
2023/01/12 01:23:22;;;;;;;5.10;1.83;;;;;;;;;;5097889;28;20121;-30
2023/01/12 01:25:48;;;;;;;5.50;1.77;;;;;;;;;;5097659;28;20016;-29
2023/01/12 01:28:15;;;;;;;8.80;2.17;;;;;;;;;;5079451;28;20394;-29
2023/01/12 01:30:41;;;;;;;9.68;2.60;;;;;;;;;;5097288;28;20031;-30
2023/01/12 01:33:07;;;;;;;4.72;2.28;;;;;;;;;;5079889;28;20028;-30
2023/01/12 01:35:35;;;;;;;7.53;2.05;;;;;;;;;;5080177;28;20035;-29
2023/01/12 01:38:01;;;;;;;6.22;2.40;;;;;;;;;;5097162;28;20032;-29
2023/01/12 01:40:27;;;;;;;6.35;2.53;;;;;;;;;;5097041;28;20051;-30
2023/01/12 01:42:53;;;;;;;10.40;2.65;;;;;;;;;;5079028;28;20046;-29
2023/01/12 01:45:20;;;;;;;6.90;2.35;;;;;;;;;;5079174;28;20024;-30
2023/01/12 01:47:48;;;;;;;4.82;1.75;;;;;;;;;;5096954;28;20020;-30
2023/01/12 01:50:19;;;;;;;8.82;2.20;;;;;;;;;;5097169;28;20024;-30
2023/01/12 01:52:45;;;;;;;;;;;;;;;;;;5097173;28;20023;-29
2023/01/12 01:55:21;;;;;;;8.98;2.70;;;;;;;;;;5097049;28;19908;-29
2023/01/12 01:57:56;;;;;;;7.70;2.45;;;;;;;;;;5096774;28;20051;-29
2023/01/12 02:00:22;;;;;;;11.18;2.13;;;;;;;;;;5096703;28;20036;-29
2023/01/12 02:02:49;;;;;;;6.22;2.22;;;;;;;;;;5096192;28;20024;-30
2023/01/12 02:05:20;;;;;;;7.13;2.70;;;;;;;;;;5096890;28;20366;-30
2023/01/12 02:07:48;;;;;;;5.22;1.90;;;;;;;;;;5096818;28;20039;-30
2023/01/12 02:10:14;;;;;;;4.10;2.40;;;;;;;;;;5096499;28;20028;-29
2023/01/12 02:18:14;;;;;;;6.32;2.45;;;;;;;;;;5096693;28;20050;-29
2023/01/12 02:20:49;;;;;;;7.35;2.80;;;;;;;;;;5078530;28;20043;-30
2023/01/12 02:23:15;;;;;;;7.68;2.28;;;;;;;;;;5096252;28;20065;-30
2023/01/12 02:25:50;;;;;;;5.57;2.08;;;;;;;;;;5096104;28;20062;-30
2023/01/12 02:28:25;;;;;;;8.95;2.63;;;;;;;;;;5078279;28;20172;-35
2023/01/12 02:31:10;;;;;;;5.00;2.05;;;;;;;;;;5078310;28;20115;-29
2023/01/12 02:33:54;;;;;;;6.07;2.35;;;;;;;;;;5096253;28;20024;-30
2023/01/12 02:36:32;;;;;;;6.57;2.10;;;;;;;;;;5096031;28;20032;-29
2023/01/12 02:39:07;;;;;;;7.13;3.72;;;;;;;;;;5096262;28;20027;-32
2023/01/12 02:44:32;;;;;;;3.67;1.70;;;;;;;;;;5096147;28;20119;-30
2023/01/12 02:47:00;;;;;;;5.82;2.17;;;;;;;;;;5096117;28;20020;-30
2023/01/12 02:49:29;;;;;;;5.43;2.50;;;;;;;;;;5095645;28;20036;-29
2023/01/12 02:51:57;;;;;;;8.77;2.67;;;;;;;;;;5095546;28;20032;-29
2023/01/12 02:54:24;;;;;;;7.60;2.03;;;;;;;;;;5095888;28;20036;-29
2023/01/12 02:56:52;;;;;;;6.30;2.83;;;;;;;;;;5095885;28;20028;-29
2023/01/12 02:59:38;;;;;;;10.13;2.85;;;;;;;;;;5095494;28;20036;-29
2023/01/12 03:02:13;;;;;;;9.10;2.67;;;;;;;;;;5095406;28;20036;-30
2023/01/12 03:04:40;;;;;;;8.38;2.97;;;;;;;;;;5095282;28;20036;-30
2023/01/12 03:07:06;;;;;;;5.57;2.00;;;;;;;;;;5095434;28;20028;-29
2023/01/12 03:09:32;;;;;;;6.18;2.08;;;;;;;;;;5095661;28;20042;-32
2023/01/12 03:12:08;;;;;;;8.27;2.58;;;;;;;;;;5095526;28;20412;-30
2023/01/12 03:14:36;;;;;;;5.88;2.88;;;;;;;;;;5095334;28;20036;-29
2023/01/12 03:17:07;;;;;;;5.40;2.65;;;;;;;;;;5095531;28;20099;-29
2023/01/12 03:19:35;;;;;;;9.75;3.15;;;;;;;;;;5095520;28;20463;-30
2023/01/12 03:22:07;;;;;;;9.23;2.28;;;;;;;;;;5095038;28;20031;-30
2023/01/12 03:24:46;;;;;;;7.50;2.20;;;;;;;;;;5095387;28;20043;-30
2023/01/12 03:27:16;;;;;;;4.63;2.13;;;;;;;;;;5095148;28;20104;-29
2023/01/12 03:29:44;;;;;;;9.82;2.60;;;;;;;;;;5094999;28;20057;-29
2023/01/12 03:32:11;;;;;;;5.50;1.98;;;;;;;;;;5095233;28;20027;-30
2023/01/12 03:34:38;;;;;;;8.20;3.25;;;;;;;;;;5095258;28;20385;-29
2023/01/12 03:37:04;;;;;;;7.22;2.90;;;;;;;;;;5094385;28;20485;-30
2023/01/12 03:39:56;;;;;;;8.93;2.13;;;;;;;;;;5094864;28;20490;-29
2023/01/12 03:42:32;;;;;;;5.47;2.20;;;;;;;;;;5091990;28;20066;-30
2023/01/12 03:45:08;;;;;;;3.22;2.30;;;;;;;;;;5095143;28;20095;-29
2023/01/12 03:47:35;;;;;;;4.65;1.65;;;;;;;;;;5077075;28;20522;-30
2023/01/12 03:50:21;;;;;;;4.75;2.58;;;;;;;;;;5095082;28;20360;-29
2023/01/12 03:52:48;;;;;;;5.45;2.10;;;;;;;;;;5094873;28;20451;-30
2023/01/12 03:55:16;;;;;;;7.53;2.22;;;;;;;;;;5094766;28;20032;-30
2023/01/12 03:57:43;;;;;;;8.20;3.28;;;;;;;;;;5095040;28;20024;-29
2023/01/12 04:00:11;;;;;;;2.53;1.85;;;;;;;;;;5094967;28;20343;-29
2023/01/12 04:02:38;;;;;;;6.40;2.13;;;;;;;;;;5094570;28;20031;-29
2023/01/12 04:05:06;;;;;;;6.78;2.33;;;;;;;;;;5094381;28;20055;-29
2023/01/12 04:07:33;;;;;;;4.05;1.58;;;;;;;;;;5094872;28;20324;-30
2023/01/12 04:09:59;;;;;;;3.85;2.03;;;;;;;;;;5094881;28;20105;-30
2023/01/12 04:12:26;;;;;;;2.65;1.60;;;;;;;;;;5094437;28;20074;-29
2023/01/12 04:14:52;;;;;;;4.40;2.25;;;;;;;;;;5094550;28;20039;-29
2023/01/12 04:17:23;;;;;;;3.80;2.05;;;;;;;;;;5094813;28;20107;-29
2023/01/12 04:19:51;;;;;;;4.10;2.03;;;;;;;;;;5094487;28;20028;-29
2023/01/12 04:25:02;;;;;;;5.20;1.83;;;;;;;;;;5094825;28;20128;-30
2023/01/12 04:27:29;;;;;;;6.15;2.10;;;;;;;;;;5094464;28;20020;-29
2023/01/12 04:29:56;;;;;;;3.42;1.70;;;;;;;;;;5094689;28;20035;-30
2023/01/12 04:32:23;;;;;;;5.05;2.15;;;;;;;;;;5094277;28;20048;-30
2023/01/12 04:34:50;;;;;;;5.90;2.25;;;;;;;;;;5094572;28;20402;-30
2023/01/12 04:37:17;;;;;;;5.50;1.95;;;;;;;;;;5545213;22;20035;-30
2023/01/12 04:39:44;;;;;;;4.97;2.10;;;;;;;;;;5135643;28;20041;-30
2023/01/12 04:42:59;;;;;;;3.28;1.90;;;;;;;;;;5135337;28;20031;-31
2023/01/12 04:44:57;;;;;;;4.07;1.60;;;;;;;;;;5135010;28;20059;-31
2023/01/12 04:47:24;;;;;;;5.25;2.80;;;;;;;;;;5136672;27;20084;-30
2023/01/12 04:49:50;;;;;;;5.15;1.63;;;;;;;;;;5138963;27;20335;-31
2023/01/12 04:52:17;;;;;;;2.97;1.38;;;;;;;;;;5138860;27;20023;-31
2023/01/12 04:54:44;;;;;;;3.30;1.75;;;;;;;;;;5138918;27;20030;-31
2023/01/12 04:57:11;;;;;;;4.25;2.13;;;;;;;;;;5138708;27;20034;-30
2023/01/12 04:59:38;;;;;;;3.22;1.80;;;;;;;;;;5138631;27;20099;-30
2023/01/12 05:02:04;;;;;;;5.18;2.00;;;;;;;;;;5138510;27;20104;-30
2023/01/12 05:04:31;;;;;;;4.20;1.73;;;;;;;;;;5138631;27;20030;-31
2023/01/12 05:06:57;;;;;;;3.22;1.75;;;;;;;;;;5137337;27;20027;-32
2023/01/12 05:12:09;;;;;;;7.30;2.40;;;;;;;;;;5138468;27;20038;-31
2023/01/12 05:14:35;;;;;;;5.45;1.80;;;;;;;;;;5138646;27;20107;-31
2023/01/12 05:17:02;;;;;;;5.43;1.75;;;;;;;;;;5138099;27;20035;-31
2023/01/12 05:19:28;;;;;;;4.70;2.00;;;;;;;;;;5138447;27;20027;-31
2023/01/12 05:21:55;;;;;;;5.15;3.45;;;;;;;;;;5137758;27;20043;-31
2023/01/12 05:24:21;;;;;;;3.80;1.88;;;;;;;;;;5137926;27;20050;-31
2023/01/12 05:26:48;;;;;;;3.10;1.90;;;;;;;;;;5137585;27;20049;-30
2023/01/12 05:29:14;;;;;;;3.60;1.65;;;;;;;;;;5138095;27;20358;-30
2023/01/12 05:31:40;;;;;;;7.22;2.10;;;;;;;;;;5137645;27;20042;-32
2023/01/12 05:34:07;;;;;;;3.13;1.98;;;;;;;;;;5137797;27;20031;-32
2023/01/12 05:36:33;;;;;;;3.35;1.75;;;;;;;;;;5136680;27;20031;-32
2023/01/12 05:38:59;;;;;;;5.75;1.75;;;;;;;;;;5137257;27;20118;-32
2023/01/12 05:41:25;;;;;;;4.25;1.98;;;;;;;;;;5137457;27;20123;-30
2023/01/12 05:43:53;;;;;;;3.17;2.03;;;;;;;;;;5137731;27;20023;-31
2023/01/12 05:46:21;;;;;;;5.45;1.70;;;;;;;;;;5137940;27;20020;-31
2023/01/12 05:48:48;;;;;;;4.78;1.73;;;;;;;;;;5137544;27;20031;-31
2023/01/12 05:51:15;;;;;;;9.85;2.15;;;;;;;;;;5137385;27;20110;-30
2023/01/12 05:53:41;;;;;;;5.32;2.28;;;;;;;;;;5137225;27;20019;-31
2023/01/12 05:56:07;;;;;;;10.63;2.60;;;;;;;;;;5137422;27;20045;-32
2023/01/12 05:58:34;;;;;;;4.50;2.10;;;;;;;;;;5136205;27;20019;-32
2023/01/12 06:03:36;;;;;;;4.93;2.17;;;;;;;;;;5294289;22;20056;-25
2023/01/12 06:06:03;;;;;;;3.70;1.45;;;;;;;;;;5075804;28;20054;-24
2023/01/12 06:08:29;;;;;;;3.65;1.75;;;;;;;;;;5075991;28;20040;-24
2023/01/12 06:10:59;;;;;;;3.13;1.70;;;;;;;;;;5075651;28;20035;-26
2023/01/12 06:16:10;;;;;;;7.10;2.92;;;;;;;;;;5076290;28;20552;-24
2023/01/12 06:18:36;;;;;;;8.93;2.10;;;;;;;;;;5075549;28;20025;-24
2023/01/12 06:21:03;;;;;;;3.50;2.30;;;;;;;;;;5075452;28;20032;-24
2023/01/12 06:23:29;;;;;;;3.50;1.58;;;;;;;;;;5075387;28;20033;-24
2023/01/12 06:25:55;;;;;;;13.65;3.08;;;;;;;;;;5075735;28;20368;-24
2023/01/12 06:28:22;;;;;;;5.43;2.22;;;;;;;;;;5075877;28;20035;-25
2023/01/12 06:30:58;;;;;;;6.35;2.10;;;;;;;;;;5075309;28;20040;-24
2023/01/12 06:33:25;;;;;;;3.63;2.15;;;;;;;;;;5075174;28;20523;-24
2023/01/12 06:35:52;;;;;;;6.97;2.00;;;;;;;;;;5075361;28;20363;-24
2023/01/12 06:38:18;;;;;;;6.18;2.42;;;;;;;;;;5075218;28;20336;-24
2023/01/12 06:40:44;;;;;;;6.43;1.75;;;;;;;;;;5075132;28;20059;-28
2023/01/12 06:43:10;;;;;;;5.93;2.50;;;;;;;;;;5074732;28;20028;-24
2023/01/12 06:45:36;;;;;;;5.28;2.05;;;;;;;;;;5074885;28;20024;-25
2023/01/12 06:48:03;;;;;;;5.25;1.98;;;;;;;;;;5074886;28;20027;-25
2023/01/12 06:50:31;;;;;;;8.48;2.42;;;;;;;;;;5074458;28;20028;-25
2023/01/12 06:53:00;;;;;;;6.97;2.05;;;;;;;;;;5074764;28;20120;-25
2023/01/12 06:55:27;;;;;;;6.13;2.15;;;;;;;;;;5074392;28;20021;-25
2023/01/12 06:57:53;;;;;;;15.63;2.45;;;;;;;;;;5074913;28;20024;-25
2023/01/12 07:00:20;;;;;;;4.22;2.17;;;;;;;;;;5075736;28;20115;-24
2023/01/12 07:02:49;;;;;;;7.95;2.17;;;;;;;;;;5074800;28;20105;-24
2023/01/12 07:05:15;;;;;;;13.13;3.00;;;;;;;;;;5074980;28;20040;-25
2023/01/12 07:07:42;;;;;;;7.45;2.00;;;;;;;;;;5074701;28;20024;-24
2023/01/12 07:10:09;;;;;;;6.68;2.03;;;;;;;;;;5056894;28;20025;-24
2023/01/12 07:12:36;;;;;;;8.05;1.67;;;;;;;;;;5057453;28;20052;-24
2023/01/12 07:15:02;;;;;;;9.40;1.90;;;;;;;;;;5074584;28;20024;-25
2023/01/12 07:17:29;;;;;;;7.25;2.28;;;;;;;;;;5074697;28;20096;-24
2023/01/12 07:19:55;;;;;;;4.05;1.67;;;;;;;;;;5074340;28;20043;-24
2023/01/12 07:22:21;;;;;;;4.32;1.77;;;;;;;;;;5074058;28;20036;-24
2023/01/12 07:24:47;;;;;;;4.43;2.08;;;;;;;;;;5074143;28;20146;-24
2023/01/12 07:27:13;;;;;;;5.70;1.35;;;;;;;;;;5056316;28;20039;-24
2023/01/12 07:29:39;;;;;;;7.53;1.88;;;;;;;;;;5074334;28;20031;-24
2023/01/12 07:32:06;;;;;;;7.75;2.10;;;;;;;;;;5074134;28;20052;-24
2023/01/12 07:34:32;;;;;;;6.60;2.35;;;;;;;;;;5074260;28;20371;-24
2023/01/12 07:36:58;;;;;;;7.65;2.00;;;;;;;;;;5074665;28;20029;-24
2023/01/12 07:39:24;;;;;;;3.97;1.95;;;;;;;;;;5074308;28;20040;-25
2023/01/12 07:44:35;;;;;;;5.82;2.03;;;;;;;;;;5074406;28;20430;-25
2023/01/12 07:47:02;;;;;;;6.70;1.85;;;;;;;;;;5056117;28;20439;-25
2023/01/12 07:49:28;;;;;;;8.00;1.88;;;;;;;;;;5074097;28;20048;-25
2023/01/12 07:51:55;;;;;;;6.82;2.08;;;;;;;;;;5073953;28;20340;-25
2023/01/12 07:54:21;;;;;;;6.45;1.75;;;;;;;;;;5055731;28;20032;-25
2023/01/12 07:56:48;;;;;;;9.55;2.58;;;;;;;;;;5073740;28;20340;-25
2023/01/12 07:59:14;;;;;;;6.50;2.38;;;;;;;;;;5039759;28;20352;-30
2023/01/12 08:01:40;;;;;;;13.40;3.10;;;;;;;;;;5073388;28;20040;-25
2023/01/12 08:04:07;;;;;;;9.85;2.83;;;;;;;;;;5073812;28;20052;-25
2023/01/12 08:06:36;;;;;;;9.40;2.95;;;;;;;;;;5073718;28;20031;-25
2023/01/12 08:09:02;;;;;;;8.95;2.15;;;;;;;;;;5073595;28;20354;-25
2023/01/12 08:11:29;;;;;;;8.02;2.38;;;;;;;;;;5073821;28;20021;-25
2023/01/12 08:13:56;;;;;;;8.43;1.67;;;;;;;;;;5073630;28;20024;-24
2023/01/12 08:16:25;;;;;;;4.13;1.30;;;;;;;;;;5073606;28;20089;-25
2023/01/12 08:18:56;;;;;;;5.30;1.80;;;;;;;;;;5073799;28;20048;-25
2023/01/12 08:21:24;;;;;;;5.53;1.73;;;;;;;;;;5073969;28;20025;-25
2023/01/12 08:23:53;;;;;;;4.45;1.75;;;;;;;;;;5077241;28;20359;-25
2023/01/12 08:26:22;;;;;;;7.10;1.67;;;;;;;;;;5077336;28;20089;-24
2023/01/12 08:28:52;;;;;;;8.75;1.85;;;;;;;;;;5077398;28;20029;-24
2023/01/12 08:31:19;;;;;;;4.20;1.98;;;;;;;;;;5078126;28;20103;-25
2023/01/12 08:33:45;;;;;;;7.40;2.13;;;;;;;;;;5077495;28;20469;-25
2023/01/12 08:36:14;;;;;;;7.20;2.45;;;;;;;;;;5077624;28;20359;-25
2023/01/12 08:38:41;;;;;;;7.25;2.58;;;;;;;;;;5077382;28;20331;-26
2023/01/12 08:44:01;;;;;;;5.30;1.75;;;;;;;;;;5077104;28;20039;-25
2023/01/12 08:46:27;;;;;;;7.90;2.17;;;;;;;;;;5077874;28;20044;-25
2023/01/12 08:48:53;;;;;;;8.15;1.70;;;;;;;;;;5077620;28;20317;-24
2023/01/12 08:51:19;;;;;;;8.80;2.28;;;;;;;;;;5077315;28;20066;-24
2023/01/12 08:53:46;;;;;;;10.32;2.50;;;;;;;;;;5077169;28;20029;-23
2023/01/12 08:56:12;;;;;;;10.10;2.10;;;;;;;;;;5077162;28;20040;-24
2023/01/12 08:58:39;;;;;;;10.43;2.00;;;;;;;;;;5077577;28;20025;-24
2023/01/12 09:01:08;;;;;;;5.18;2.85;;;;;;;;;;5059409;28;20060;-24
2023/01/12 09:03:38;;;;;;;3.25;1.70;;;;;;;;;;5069343;28;20040;-24
2023/01/12 09:06:08;;;;;;;6.07;2.08;;;;;;;;;;5077154;28;20021;-24
2023/01/12 09:08:34;;;;;;;10.40;2.60;;;;;;;;;;5077871;28;20124;-23
2023/01/12 09:11:04;;;;;;;4.30;2.03;;;;;;;;;;5077663;28;20024;-24
2023/01/12 09:13:32;;;;;;;6.73;1.77;;;;;;;;;;5077323;28;20055;-24
2023/01/12 09:16:02;;;;;;;8.35;2.30;;;;;;;;;;5076996;28;20028;-26
2023/01/12 09:18:28;;;;;;;13.45;1.98;;;;;;;;;;5077419;28;20056;-25
2023/01/12 09:21:00;;;;;;;12.80;2.53;;;;;;;;;;5076711;28;20362;-24
2023/01/12 09:23:26;;;;;;;7.45;2.70;;;;;;;;;;5076693;28;20114;-24
2023/01/12 09:25:52;;;;;;;6.28;2.13;;;;;;;;;;5076802;28;20098;-24
2023/01/12 09:28:18;;;;;;;3.67;1.50;;;;;;;;;;5077183;28;20020;-24
2023/01/12 09:30:44;;;;;;;8.88;1.60;;;;;;;;;;5076708;28;20029;-24
2023/01/12 09:33:11;;;;;;;4.82;1.42;;;;;;;;;;5076038;28;20048;-26
2023/01/12 09:35:38;;;;;;;6.95;1.90;;;;;;;;;;5076139;28;20025;-25
2023/01/12 09:38:04;;;;;;;6.68;2.15;;;;;;;;;;5076524;28;20028;-25
2023/01/12 09:40:30;;;;;;;10.23;2.67;;;;;;;;;;5077333;28;20032;-25
2023/01/12 09:48:28;;;;;;;7.68;1.80;;;;;;;;;;5076515;28;20032;-25
2023/01/12 09:50:58;;;;;;;8.40;3.53;;;;;;;;;;5076671;28;20048;-25
2023/01/12 09:53:30;;;;;;;6.07;1.55;;;;;;;;;;5077159;28;20365;-24
2023/01/12 09:56:15;;;;;;;5.95;1.95;;;;;;;;;;5059263;28;20029;-25
2023/01/12 09:58:41;;;;;;;6.35;1.38;;;;;;;;;;5076588;28;20028;-25
2023/01/12 10:01:12;;;;;;;7.20;2.97;;;;;;;;;;5075178;28;20451;-25
2023/01/12 10:03:40;;;;;;;8.27;2.28;;;;;;;;;;5075874;28;20114;-25
2023/01/12 10:06:08;;;;;;;5.07;1.33;;;;;;;;;;5076520;28;20347;-25
2023/01/12 10:08:35;;;;;;;8.85;1.50;;;;;;;;;;5076411;28;20398;-25
2023/01/12 10:11:20;;;;;;;10.98;1.58;;;;;;;;;;5058357;28;20059;-25
2023/01/12 10:13:56;;;;;;;6.50;2.13;;;;;;;;;;5076253;28;20028;-25
2023/01/12 10:16:45;;;;;;;4.70;1.75;;;;;;;;;;5075953;28;20043;-25
2023/01/12 10:19:18;;;;;;;10.40;1.77;;;;;;;;;;5039066;28;20036;-25
2023/01/12 10:21:44;;;;;;;6.28;1.45;;;;;;;;;;5075862;28;20039;-25
2023/01/12 10:24:14;;;;;;;7.22;1.52;;;;;;;;;;5075988;28;20362;-25
2023/01/12 10:26:44;;;;;;;6.85;1.55;;;;;;;;;;5058127;28;20490;-25
2023/01/12 10:29:12;;;;;;;6.43;1.88;;;;;;;;;;5076103;28;20062;-25
2023/01/12 10:31:38;;;;;;;5.15;1.48;;;;;;;;;;5075587;28;20037;-25
2023/01/12 10:34:09;;;;;;;15.93;2.40;;;;;;;;;;5057894;28;20032;-25
2023/01/12 10:36:43;;;;;;;6.10;2.00;;;;;;;;;;5075668;28;20351;-25
2023/01/12 10:39:28;;;;;;;9.35;1.92;;;;;;;;;;5057834;28;20086;-25
2023/01/12 10:43:17;;;;;;;4.65;2.67;;;;;;;;;;5075882;28;20035;-25
2023/01/12 10:45:13;;;;;;;8.32;1.92;;;;;;;;;;5074738;28;20036;-25
2023/01/12 10:47:40;;;;;;;7.30;1.67;;;;;;;;;;5075263;28;20024;-25
2023/01/12 10:50:31;;;;;;;5.18;1.90;;;;;;;;;;5075282;28;20028;-25
2023/01/12 10:53:12;;;;;;;4.60;1.52;;;;;;;;;;5066084;28;20344;-25
2023/01/12 10:55:39;;;;;;;9.50;1.73;;;;;;;;;;5075469;28;20359;-25
2023/01/12 10:58:16;;;;;;;8.65;1.63;;;;;;;;;;5075238;28;20040;-25
2023/01/12 11:00:46;;;;;;;6.93;2.80;;;;;;;;;;5057337;28;20028;-24
2023/01/12 11:03:25;;;;;;;6.40;2.07;;;;;;;;;;5074723;28;20149;-25
2023/01/12 11:05:52;;;;;;;12.82;2.17;;;;;;;;;;5074863;28;20266;-25
2023/01/12 11:08:29;;;;;;;9.20;1.85;;;;;;;;;;5075484;28;20032;-25
2023/01/12 11:10:55;;;;;;;6.78;1.60;;;;;;;;;;5074735;28;20031;-25
2023/01/12 11:13:25;;;;;;;7.28;2.38;;;;;;;;;;5074726;28;20037;-26
2023/01/12 11:15:55;;;;;;;6.43;2.22;;;;;;;;;;5074887;28;20032;-25
2023/01/12 11:18:21;;;;;;;4.85;1.20;;;;;;;;;;5057328;28;20032;-25
2023/01/12 11:20:51;;;;;;;8.68;1.67;;;;;;;;;;5074663;28;20034;-25
2023/01/12 11:23:50;;;;;;;6.55;2.15;;;;;;;;;;5074595;28;20141;-25
2023/01/12 11:26:26;;;;;;;6.45;1.70;;;;;;;;;;5030948;28;20040;-25
2023/01/12 11:28:54;;;;;;;3.70;1.38;;;;;;;;;;5056820;28;20097;-25
2023/01/12 11:31:30;;;;;;;3.30;1.40;;;;;;;;;;5075061;28;20024;-27
2023/01/12 11:33:58;;;;;;;6.30;1.83;;;;;;;;;;5074459;28;20021;-26
2023/01/12 11:36:30;;;;;;;8.48;2.15;;;;;;;;;;5074889;28;20364;-25
2023/01/12 11:39:02;;;;;;;10.15;1.75;;;;;;;;;;5074845;28;20024;-25
2023/01/12 11:41:33;;;;;;;4.78;1.33;;;;;;;;;;5075041;28;20082;-25
2023/01/12 11:43:59;;;;;;;;;;;;;;;;;;5074822;28;20028;-26
2023/01/12 11:46:34;;;;;;;7.57;1.83;;;;;;;;;;5074774;28;20216;-25
2023/01/12 11:49:10;;;;;;;10.48;2.03;;;;;;;;;;5074437;28;20040;-25
2023/01/12 11:51:36;;;;;;;5.82;1.95;;;;;;;;;;5074624;28;20128;-25
2023/01/12 11:54:04;;;;;;;8.98;1.65;;;;;;;;;;5057859;28;20320;-26
2023/01/12 11:56:48;;;;;;;5.57;1.42;;;;;;;;;;5073827;28;20056;-26
2023/01/12 11:59:21;;;;;;;3.55;1.48;;;;;;;;;;5074624;28;20346;-26
2023/01/12 12:01:54;;;;;;;9.60;2.22;;;;;;;;;;5074016;28;20060;-26
2023/01/12 12:04:26;;;;;;;3.22;1.30;;;;;;;;;;5074211;28;20110;-26
2023/01/12 12:06:55;;;;;;;4.60;1.70;;;;;;;;;;5074443;28;20021;-25
2023/01/12 12:09:48;;;;;;;9.85;1.70;;;;;;;;;;5074441;28;20021;-26
2023/01/12 12:12:33;;;;;;;9.80;2.03;;;;;;;;;;5074936;28;20390;-26
2023/01/12 12:15:18;;;;;;;3.72;1.20;;;;;;;;;;5074218;28;20308;-24
2023/01/12 12:18:05;;;;;;;8.05;1.50;;;;;;;;;;5074813;28;20511;-25
2023/01/12 12:20:42;;;;;;;6.00;1.40;;;;;;;;;;5074048;28;20047;-25
2023/01/12 12:23:09;;;;;;;3.85;1.42;;;;;;;;;;5074237;28;20112;-24
2023/01/12 12:25:47;;;;;;;6.20;2.00;;;;;;;;;;5074176;28;20024;-24
2023/01/12 12:28:17;;;;;;;4.45;1.60;;;;;;;;;;5073906;28;20020;-25
2023/01/12 12:30:52;;;;;;;3.50;1.63;;;;;;;;;;5073950;28;20040;-25
2023/01/12 12:33:28;;;;;;;3.92;1.50;;;;;;;;;;5056763;28;20451;-25
2023/01/12 12:36:13;;;;;;;5.65;2.17;;;;;;;;;;5074349;28;20048;-25
2023/01/12 12:39:10;;;;;;;4.50;1.90;;;;;;;;;;5073707;28;20043;-26
2023/01/12 12:47:37;;;;;;;6.97;1.40;;;;;;;;;;5074276;28;20458;-25
2023/01/12 12:50:03;;;;;;;4.60;1.20;;;;;;;;;;5073766;28;20043;-25
2023/01/12 12:52:33;;;;;;;3.88;1.25;;;;;;;;;;5073793;28;20028;-24
2023/01/12 12:55:00;;;;;;;6.13;1.63;;;;;;;;;;5073853;28;20020;-24
2023/01/12 12:57:27;;;;;;;11.35;1.58;;;;;;;;;;5073801;28;20056;-24
2023/01/12 12:59:58;;;;;;;11.48;2.08;;;;;;;;;;5073666;28;20059;-24
2023/01/12 13:02:52;;;;;;;7.93;1.40;;;;;;;;;;5073163;28;20039;-25
2023/01/12 13:05:38;;;;;;;8.80;1.48;;;;;;;;;;5074442;28;20036;-25
2023/01/12 13:08:05;;;;;;;5.90;0.88;;;;;;;;;;5074752;28;20140;-25
2023/01/12 13:10:31;;;;;;;5.80;1.25;;;;;;;;;;5077524;28;20054;-25
2023/01/12 13:13:00;;;;;;;5.50;1.73;;;;;;;;;;5076918;28;20044;-26
2023/01/12 13:15:31;;;;;;;8.43;2.45;;;;;;;;;;5077308;28;20032;-24
2023/01/12 13:17:58;;;;;;;10.90;1.35;;;;;;;;;;5077248;28;20020;-25
2023/01/12 13:20:35;;;;;;;4.45;1.40;;;;;;;;;;5077228;28;20051;-26
2023/01/12 13:23:01;;;;;;;6.70;2.75;;;;;;;;;;5059002;28;20089;-24
2023/01/12 13:25:31;;;;;;;4.22;1.20;;;;;;;;;;5077132;28;20031;-24
2023/01/12 13:30:30;;;;;;;3.20;1.00;;;;;;;;;;5077372;28;20104;-25
2023/01/12 13:33:01;;;;;;;3.60;1.73;;;;;;;;;;5076890;28;20405;-25
2023/01/12 13:35:27;;;;;;;;;;;;;;;;;;5077041;28;20040;-24
2023/01/12 13:38:02;;;;;;;7.82;1.50;;;;;;;;;;5059033;28;19970;-24
2023/01/12 13:40:30;;;;;;;3.20;1.15;;;;;;;;;;5077294;28;20024;-25
2023/01/12 13:43:18;;;;;;;6.93;1.90;;;;;;;;;;5076406;28;20024;-25
2023/01/12 13:45:59;;;;;;;8.60;1.60;;;;;;;;;;5076568;28;20017;-25
2023/01/12 13:48:27;;;;;;;3.55;1.17;;;;;;;;;;5076782;28;20063;-25
2023/01/12 13:50:56;;;;;;;10.75;1.95;;;;;;;;;;5076298;28;20038;-24
2023/01/12 13:53:24;;;;;;;8.43;1.60;;;;;;;;;;5076241;28;20028;-25
2023/01/12 13:56:01;;;;;;;8.70;1.55;;;;;;;;;;5076190;28;20035;-24
2023/01/12 13:58:29;;;;;;;5.40;1.30;;;;;;;;;;5076529;28;20405;-25
2023/01/12 14:01:00;;;;;;;6.45;1.65;;;;;;;;;;5076087;28;20032;-25
2023/01/12 14:03:33;;;;;;;9.32;2.45;;;;;;;;;;5076080;28;20047;-25
2023/01/12 14:06:10;;;;;;;9.05;1.95;;;;;;;;;;5076519;28;20021;-26
2023/01/12 14:08:44;;;;;;;12.80;2.17;;;;;;;;;;5076353;28;20051;-25
2023/01/12 14:11:29;;;;;;;3.05;1.30;;;;;;;;;;5076271;28;20108;-24
2023/01/12 14:19:57;;;;;;;5.95;1.33;;;;;;;;;;5075223;28;20127;-24
2023/01/12 14:22:23;;;;;;;7.85;1.48;;;;;;;;;;5076048;28;20032;-24
2023/01/12 14:24:50;;;;;;;2.42;1.10;;;;;;;;;;5075811;28;20363;-24
2023/01/12 14:27:25;;;;;;;5.80;1.20;;;;;;;;;;5075738;28;20035;-24
2023/01/12 14:29:51;;;;;;;4.78;0.98;;;;;;;;;;5075897;28;20083;-24
2023/01/12 14:32:18;;;;;;;2.67;0.73;;;;;;;;;;5075522;28;20037;-27
2023/01/12 14:34:51;;;;;;;4.10;1.10;;;;;;;;;;5075558;28;20466;-25
2023/01/12 14:37:24;;;;;;;4.72;1.08;;;;;;;;;;5075548;28;20115;-24
2023/01/12 14:39:50;;;;;;;6.65;1.42;;;;;;;;;;5075641;28;20367;-24
2023/01/12 14:48:20;;;;;;;5.03;1.10;;;;;;;;;;5041712;28;20039;-24
2023/01/12 14:50:59;;;;;;;5.97;1.35;;;;;;;;;;5075057;28;20042;-24
2023/01/12 14:53:38;;;;;;;8.05;1.60;;;;;;;;;;5057661;28;20371;-24
2023/01/12 14:56:09;;;;;;;10.15;1.40;;;;;;;;;;5075477;28;20361;-24
2023/01/12 14:58:35;;;;;;;3.45;1.83;;;;;;;;;;5075395;28;20382;-24
2023/01/12 15:01:02;;;;;;;5.97;1.17;;;;;;;;;;5075391;28;20119;-24
2023/01/12 15:03:29;;;;;;;4.47;1.30;;;;;;;;;;5074652;28;20071;-25
2023/01/12 15:05:55;;;;;;;7.07;1.40;;;;;;;;;;5075018;28;20049;-25
2023/01/12 15:08:25;;;;;;;5.88;1.08;;;;;;;;;;5074843;28;20108;-25
2023/01/12 15:10:57;;;;;;;7.97;1.10;;;;;;;;;;5074712;28;20055;-24
2023/01/12 15:13:33;;;;;;;9.35;1.88;;;;;;;;;;5074728;28;20412;-24
2023/01/12 15:27:13;;;;;;;5.93;1.58;;;;;;;;;;5075006;28;20044;-25
2023/01/12 15:29:39;;;;;;;7.55;1.25;;;;;;;;;;5074914;28;20105;-25
2023/01/12 15:32:12;;;;;;;5.47;1.38;;;;;;;;;;5074336;28;20029;-24
2023/01/12 15:34:38;;;;;;;7.95;1.40;;;;;;;;;;5074857;28;20040;-24
2023/01/12 15:37:04;;;;;;;5.40;1.23;;;;;;;;;;5074510;28;20085;-24
2023/01/12 15:39:30;;;;;;;16.98;2.08;;;;;;;;;;5074773;28;20424;-24
2023/01/12 15:42:15;;;;;;;10.02;1.90;;;;;;;;;;5074332;28;20025;-24
2023/01/12 15:44:41;;;;;;;5.78;1.25;;;;;;;;;;5075060;28;20103;-24
2023/01/12 15:47:11;;;;;;;13.68;1.88;;;;;;;;;;5074402;28;20020;-24
2023/01/12 15:49:37;;;;;;;10.00;1.67;;;;;;;;;;5074744;28;20028;-24
2023/01/12 15:52:03;;;;;;;8.13;1.38;;;;;;;;;;5074406;28;20271;-24
2023/01/12 15:54:30;;;;;;;10.32;2.53;;;;;;;;;;5074576;28;20047;-24
2023/01/12 15:56:58;;;;;;;6.97;1.27;;;;;;;;;;5074411;28;20063;-24
2023/01/12 15:59:24;;;;;;;5.18;1.50;;;;;;;;;;5074313;28;20035;-25
2023/01/12 16:01:50;;;;;;;11.35;1.70;;;;;;;;;;5074730;28;20024;-25
2023/01/12 16:04:21;;;;;;;4.88;1.10;;;;;;;;;;5074061;28;20041;-24
2023/01/12 16:06:48;;;;;;;5.40;1.08;;;;;;;;;;5074688;28;20025;-25